createdAt,value
2022-11-06T00:01:57.918Z,27.80
2022-11-06T00:06:26.936Z,28.80
2022-11-06T00:10:34.310Z,24.70
2022-11-06T00:14:42.222Z,33.70
2022-11-06T00:18:49.968Z,28.10
2022-11-06T00:22:57.645Z,27.30
2022-11-06T00:27:05.989Z,30.40
2022-11-06T00:31:15.208Z,27.90
2022-11-06T00:35:23.153Z,26.80
2022-11-06T00:39:30.689Z,28.40
2022-11-06T00:43:39.076Z,36.10
2022-11-06T00:47:47.182Z,30.40
2022-11-06T00:51:55.199Z,27.10
2022-11-06T00:56:09.489Z,29.00
2022-11-06T01:00:20.636Z,24.00
2022-11-06T01:04:28.698Z,27.10
2022-11-06T01:08:36.219Z,30.90
2022-11-06T01:12:44.404Z,30.40
2022-11-06T01:16:53.148Z,26.80
2022-11-06T01:21:00.741Z,26.90
2022-11-06T01:25:10.633Z,29.40
2022-11-06T01:29:20.423Z,27.80
2022-11-06T01:33:28.443Z,30.30
2022-11-06T01:37:36.619Z,29.70
2022-11-06T01:41:46.013Z,29.70
2022-11-06T01:45:55.022Z,26.10
2022-11-06T01:50:08.792Z,24.10
2022-11-06T01:54:19.310Z,27.30
2022-11-06T01:58:29.873Z,29.10
2022-11-06T02:02:37.989Z,26.30
2022-11-06T02:06:47.171Z,24.70
2022-11-06T02:10:56.020Z,27.00
2022-11-06T02:15:08.691Z,24.10
2022-11-06T02:19:32.118Z,27.30
2022-11-06T02:23:56.378Z,29.30
2022-11-06T02:28:08.547Z,32.70
2022-11-06T02:32:23.304Z,26.50
2022-11-06T02:36:34.721Z,24.00
2022-11-06T02:40:45.569Z,23.40
2022-11-06T02:44:55.258Z,20.30
2022-11-06T02:49:08.571Z,28.40
2022-11-06T02:53:19.955Z,26.20
2022-11-06T02:57:30.067Z,22.40
2022-11-06T03:01:41.245Z,24.40
2022-11-06T03:05:53.831Z,24.80
2022-11-06T03:10:02.633Z,24.10
2022-11-06T03:14:15.171Z,34.50
2022-11-06T03:18:29.885Z,25.60
2022-11-06T03:22:45.109Z,27.00
2022-11-06T03:26:54.711Z,22.90
2022-11-06T03:31:07.353Z,21.80
2022-11-06T03:35:19.871Z,21.10
2022-11-06T03:39:31.276Z,25.40
2022-11-06T03:43:40.391Z,22.10
2022-11-06T03:47:50.237Z,26.00
2022-11-06T03:52:01.424Z,24.50
2022-11-06T03:56:13.840Z,18.70
2022-11-06T04:00:23.059Z,20.60
2022-11-06T04:04:34.026Z,19.40
2022-11-06T04:08:59.339Z,19.50
2022-11-06T04:13:24.336Z,21.90
2022-11-06T04:17:33.382Z,21.30
2022-11-06T04:21:49.716Z,17.60
2022-11-06T04:26:23.486Z,19.20
2022-11-06T04:30:34.184Z,19.10
2022-11-06T04:34:45.802Z,16.00
2022-11-06T04:38:59.578Z,17.20
2022-11-06T04:43:10.139Z,21.00
2022-11-06T04:47:20.185Z,21.30
2022-11-06T04:51:32.375Z,18.60
2022-11-06T04:55:52.442Z,18.00
2022-11-06T05:00:00.351Z,17.80
2022-11-06T05:04:08.443Z,19.20
2022-11-06T05:08:18.726Z,22.30
2022-11-06T05:12:26.660Z,21.80
2022-11-06T05:16:34.639Z,22.10
2022-11-06T05:20:41.894Z,22.40
2022-11-06T05:24:50.615Z,27.00
2022-11-06T05:28:58.338Z,26.20
2022-11-06T05:33:06.233Z,21.60
2022-11-06T05:37:13.930Z,26.30
2022-11-06T05:41:22.362Z,27.70
2022-11-06T05:45:30.493Z,23.60
2022-11-06T05:49:37.950Z,20.70
2022-11-06T05:53:45.807Z,19.90
2022-11-06T05:57:53.545Z,21.70
2022-11-06T06:02:01.482Z,27.00
2022-11-06T06:06:10.555Z,34.10
2022-11-06T06:10:18.067Z,34.10
2022-11-06T06:14:25.815Z,24.50
2022-11-06T06:18:33.717Z,22.20
2022-11-06T06:22:41.407Z,17.80
2022-11-06T06:26:49.984Z,32.30
2022-11-06T06:31:01.485Z,23.20
2022-11-06T06:35:11.026Z,22.20
2022-11-06T06:39:19.892Z,24.20
2022-11-06T06:43:27.548Z,27.10
2022-11-06T06:47:35.100Z,24.10
2022-11-06T06:51:43.012Z,24.20
2022-11-06T06:55:50.363Z,26.70
2022-11-06T06:59:57.558Z,37.00
2022-11-06T07:04:05.573Z,39.70
2022-11-06T07:08:13.585Z,35.40
2022-11-06T07:12:21.495Z,31.10
2022-11-06T07:16:30.299Z,26.30
2022-11-06T07:20:40.002Z,21.20
2022-11-06T07:24:47.357Z,25.60
2022-11-06T07:28:54.886Z,25.20
2022-11-06T07:33:04.999Z,25.30
2022-11-06T07:37:12.849Z,40.80
2022-11-06T07:41:20.696Z,34.20
2022-11-06T07:45:29.481Z,33.40
2022-11-06T07:49:37.875Z,31.70
2022-11-06T07:53:45.569Z,28.10
2022-11-06T07:57:53.137Z,24.40
2022-11-06T08:02:00.902Z,23.90
2022-11-06T08:06:09.663Z,19.60
2022-11-06T08:10:18.383Z,24.10
2022-11-06T08:14:25.914Z,17.30
2022-11-06T08:18:33.970Z,14.80
2022-11-06T08:22:41.645Z,16.70
2022-11-06T08:26:48.964Z,14.50
2022-11-06T08:30:56.798Z,17.20
2022-11-06T08:35:04.152Z,14.70
2022-11-06T08:39:11.947Z,15.80
2022-11-06T08:43:19.609Z,14.20
2022-11-06T08:47:27.078Z,12.50
2022-11-06T08:51:34.969Z,16.10
2022-11-06T08:55:42.546Z,13.50
2022-11-06T08:59:50.382Z,16.60
2022-11-06T09:03:57.838Z,14.90
2022-11-06T09:08:06.539Z,13.00
2022-11-06T09:12:14.651Z,16.10
2022-11-06T09:16:22.947Z,12.50
2022-11-06T09:20:30.588Z,11.60
2022-11-06T09:25:02.088Z,16.80
2022-11-06T09:29:07.024Z,15.50
2022-11-06T09:33:16.435Z,15.30
2022-11-06T09:37:25.781Z,19.50
2022-11-06T09:41:38.220Z,14.10
2022-11-06T09:45:48.859Z,9.80
2022-11-06T09:50:00.860Z,9.60
2022-11-06T09:54:12.411Z,12.80
2022-11-06T09:58:24.150Z,12.30
2022-11-06T10:02:35.604Z,11.50
2022-11-06T10:06:43.169Z,9.20
2022-11-06T10:10:58.785Z,8.70
2022-11-06T10:15:18.363Z,10.90
2022-11-06T10:19:32.258Z,11.70
2022-11-06T10:23:47.127Z,11.00
2022-11-06T10:28:03.202Z,8.20
2022-11-06T10:32:43.808Z,9.80
2022-11-06T10:36:54.558Z,12.30
2022-11-06T10:41:03.350Z,9.00
2022-11-06T10:45:14.966Z,9.50
2022-11-06T10:49:30.330Z,9.40
2022-11-06T10:53:42.333Z,7.90
2022-11-06T10:57:54.856Z,8.10
2022-11-06T11:02:03.787Z,8.80
2022-11-06T11:06:13.946Z,12.60
2022-11-06T11:10:33.391Z,8.80
2022-11-06T11:14:41.367Z,10.70
2022-11-06T11:18:50.289Z,8.50
2022-11-06T11:23:09.209Z,7.00
2022-11-06T11:27:18.567Z,8.40
2022-11-06T11:31:31.386Z,5.90
2022-11-06T11:35:39.522Z,9.60
2022-11-06T11:39:48.065Z,8.50
2022-11-06T11:44:11.027Z,8.60
2022-11-06T11:48:18.844Z,8.90
2022-11-06T11:52:26.519Z,6.20
2022-11-06T11:57:02.798Z,9.50
2022-11-06T12:01:03.594Z,5.80
2022-11-06T12:05:14.639Z,5.60
2022-11-06T12:09:23.218Z,6.70
2022-11-06T12:13:31.562Z,5.80
2022-11-06T12:17:42.555Z,6.90
2022-11-06T12:21:55.477Z,8.80
2022-11-06T12:26:08.031Z,6.90
2022-11-06T12:30:17.905Z,9.10
2022-11-06T12:34:30.079Z,7.40
2022-11-06T12:38:43.531Z,6.30
2022-11-06T12:42:59.351Z,6.70
2022-11-06T12:47:13.161Z,7.00
2022-11-06T12:51:27.163Z,6.50
2022-11-06T12:55:36.997Z,7.80
2022-11-06T12:59:52.623Z,5.80
2022-11-06T13:04:21.693Z,5.70
2022-11-06T13:08:37.348Z,5.90
2022-11-06T13:12:48.600Z,10.10
2022-11-06T13:17:01.819Z,7.00
2022-11-06T13:21:12.629Z,8.40
2022-11-06T13:25:24.650Z,10.80
2022-11-06T13:29:32.941Z,9.70
2022-11-06T13:33:43.680Z,14.10
2022-11-06T13:37:53.016Z,6.10
2022-11-06T13:42:02.484Z,10.70
2022-11-06T13:46:16.618Z,7.90
2022-11-06T13:50:32.030Z,6.50
2022-11-06T13:54:59.512Z,8.70
2022-11-06T13:59:27.431Z,7.20
2022-11-06T14:04:20.435Z,6.40
2022-11-06T14:08:31.046Z,7.10
2022-11-06T14:12:38.726Z,5.90
2022-11-06T14:16:48.224Z,6.40
2022-11-06T14:21:44.217Z,7.10
2022-11-06T14:26:03.302Z,7.50
2022-11-06T14:31:10.334Z,6.90
2022-11-06T14:35:51.955Z,6.80
2022-11-06T14:40:12.394Z,11.20
2022-11-06T14:44:44.463Z,9.40
2022-11-06T14:48:53.761Z,10.60
2022-11-06T14:53:03.898Z,10.20
2022-11-06T14:57:14.727Z,9.60
2022-11-06T15:01:29.888Z,11.60
2022-11-06T15:05:42.223Z,10.30
2022-11-06T15:09:51.136Z,11.30
2022-11-06T15:14:04.564Z,12.90
2022-11-06T15:18:19.693Z,15.10
2022-11-06T15:22:37.062Z,13.90
2022-11-06T15:26:48.963Z,14.60
2022-11-06T15:31:02.549Z,11.50
2022-11-06T15:35:17.004Z,11.30
2022-11-06T15:39:31.278Z,12.50
2022-11-06T15:43:40.049Z,13.80
2022-11-06T15:47:58.571Z,11.80
2022-11-06T15:52:09.915Z,11.80
2022-11-06T15:56:19.122Z,11.10
2022-11-06T16:00:27.449Z,11.10
2022-11-06T16:04:35.420Z,13.00
2022-11-06T16:08:44.203Z,12.90
2022-11-06T16:12:53.855Z,16.60
2022-11-06T16:17:12.593Z,18.60
2022-11-06T16:21:22.643Z,18.50
2022-11-06T16:25:30.131Z,19.50
2022-11-06T16:29:38.671Z,20.60
2022-11-06T16:33:56.515Z,18.80
2022-11-06T16:38:41.575Z,24.10
2022-11-06T16:43:03.850Z,26.80
2022-11-06T16:47:17.638Z,22.30
2022-11-06T16:51:34.748Z,21.30
2022-11-06T16:55:42.959Z,24.40
2022-11-06T17:00:00.330Z,24.60
2022-11-06T17:04:11.261Z,29.00
2022-11-06T17:08:28.301Z,29.00
2022-11-06T17:12:36.064Z,22.40
2022-11-06T17:16:51.360Z,26.20
2022-11-06T17:21:01.733Z,30.40
2022-11-06T17:25:13.211Z,28.10
2022-11-06T17:29:22.375Z,26.50
2022-11-06T17:33:31.067Z,29.50
2022-11-06T17:37:39.030Z,29.40
2022-11-06T17:41:46.608Z,29.20
2022-11-06T17:45:53.999Z,31.90
2022-11-06T17:50:04.154Z,30.10
2022-11-06T17:54:12.644Z,33.60
2022-11-06T17:58:20.037Z,33.40
2022-11-06T18:02:48.079Z,33.00
2022-11-06T18:06:56.955Z,37.00
2022-11-06T18:11:04.406Z,34.40
2022-11-06T18:15:13.212Z,36.50
2022-11-06T18:19:22.922Z,37.60
2022-11-06T18:23:30.843Z,42.10
2022-11-06T18:27:39.207Z,37.90
2022-11-06T18:31:47.073Z,38.10
2022-11-06T18:35:55.244Z,34.50
2022-11-06T18:40:06.376Z,40.10
2022-11-06T18:44:18.405Z,43.20
2022-11-06T18:48:25.918Z,42.70
2022-11-06T18:52:56.358Z,39.00
2022-11-06T18:57:03.504Z,37.50
2022-11-06T19:01:13.427Z,34.80
2022-11-06T19:05:21.180Z,40.80
2022-11-06T19:09:31.086Z,38.40
2022-11-06T19:13:44.804Z,41.10
2022-11-06T19:17:56.698Z,36.40
2022-11-06T19:22:04.545Z,34.40
2022-11-06T19:26:30.745Z,37.30
2022-11-06T19:30:40.148Z,32.60
2022-11-06T19:34:48.124Z,35.70
2022-11-06T19:38:57.709Z,36.00
2022-11-06T19:43:07.405Z,32.70
2022-11-06T19:47:16.591Z,35.40
2022-11-06T19:51:25.050Z,33.50
2022-11-06T19:55:32.582Z,40.70
2022-11-06T19:59:40.242Z,32.10
2022-11-06T20:03:47.870Z,33.80
2022-11-06T20:07:55.654Z,32.70
2022-11-06T20:12:03.639Z,33.00
2022-11-06T20:16:13.819Z,38.20
2022-11-06T20:20:22.277Z,33.70
2022-11-06T20:24:30.135Z,36.10
2022-11-06T20:28:37.898Z,36.00
2022-11-06T20:32:45.869Z,36.30
2022-11-06T20:36:54.358Z,32.00
2022-11-06T20:41:02.695Z,34.60
2022-11-06T20:45:12.864Z,37.60
2022-11-06T20:49:21.698Z,38.40
2022-11-06T20:53:29.681Z,34.10
2022-11-06T20:57:37.289Z,30.60
2022-11-06T21:01:45.064Z,31.40
2022-11-06T21:05:52.910Z,32.20
2022-11-06T21:10:02.842Z,30.40
2022-11-06T21:14:15.383Z,34.50
2022-11-06T21:18:27.124Z,34.90
2022-11-06T21:22:35.504Z,31.10
2022-11-06T21:26:43.912Z,34.30
2022-11-06T21:30:51.586Z,42.30
2022-11-06T21:35:01.660Z,57.80
2022-11-06T21:39:12.580Z,49.60
2022-11-06T21:43:20.573Z,44.30
2022-11-06T21:47:30.989Z,38.10
2022-11-06T21:51:40.273Z,35.90
2022-11-06T21:55:59.866Z,38.50
2022-11-06T22:00:14.074Z,40.80
2022-11-06T22:04:23.804Z,36.30
2022-11-06T22:08:38.744Z,39.50
2022-11-06T22:12:46.721Z,34.90
2022-11-06T22:16:56.204Z,37.40
2022-11-06T22:21:13.023Z,31.40
2022-11-06T22:25:21.769Z,30.00
2022-11-06T22:29:30.181Z,31.00
2022-11-06T22:33:39.502Z,27.80
2022-11-06T22:37:48.400Z,33.60
2022-11-06T22:41:58.689Z,38.30
2022-11-06T22:46:09.275Z,34.40
2022-11-06T22:50:17.109Z,31.40
2022-11-06T22:54:24.460Z,31.90
2022-11-06T22:58:32.088Z,27.00
2022-11-06T23:02:39.802Z,36.90
2022-11-06T23:06:48.206Z,33.00
2022-11-06T23:10:57.176Z,30.90
2022-11-06T23:15:06.537Z,34.30
2022-11-06T23:19:16.172Z,29.30
2022-11-06T23:23:23.852Z,28.60
2022-11-06T23:27:31.521Z,32.20
2022-11-06T23:31:41.181Z,33.60
2022-11-06T23:35:49.173Z,31.30
2022-11-06T23:39:56.778Z,26.60
2022-11-06T23:44:25.890Z,28.20
2022-11-06T23:48:34.460Z,28.80
2022-11-06T23:52:42.862Z,33.50
2022-11-06T23:56:50.992Z,30.00
